Time;durP1;ratioP1;P1;durP2;ratioP2;P2;SDS_P1;SDS_P2;PMS_P1;PMS_P2;Temp;Humidity;BMP_temperature;BMP_pressure;BME280_temperature;BME280_humidity;BME280_pressure;Samples;Min_cycle;Max_cycle;Signal;HPM_P1;HPM_P2
2021/01/25 00:01:21;;;;;;;12.13;6.57;;;23.40;29.50;;;;;;6171361;28;80870;-62
2021/01/25 00:04:21;;;;;;;11.75;6.35;;;23.30;29.20;;;;;;6172152;27;84870;-64
2021/01/25 00:07:22;;;;;;;14.27;7.40;;;23.30;29.20;;;;;;6170900;28;87233;-64
2021/01/25 00:10:22;;;;;;;18.27;7.47;;;23.30;29.20;;;;;;6174505;28;80971;-63
2021/01/25 00:13:23;;;;;;;13.93;7.20;;;23.30;29.30;;;;;;6156779;28;80862;-63
2021/01/25 00:16:23;;;;;;;14.77;7.05;;;23.30;29.30;;;;;;6181285;27;81127;-63
2021/01/25 00:19:24;;;;;;;15.50;7.25;;;23.30;29.20;;;;;;6180746;28;80713;-63
2021/01/25 00:22:27;;;;;;;13.55;7.10;;;23.30;29.20;;;;;;6179967;28;81772;-63
2021/01/25 00:25:27;;;;;;;15.30;7.25;;;23.30;29.20;;;;;;6157540;28;81526;-63
2021/01/25 00:28:28;;;;;;;12.85;6.30;;;23.30;29.30;;;;;;6179193;27;83032;-62
2021/01/25 00:31:28;;;;;;;15.48;7.05;;;23.30;29.30;;;;;;6161719;28;80611;-62
2021/01/25 00:34:29;;;;;;;15.80;7.57;;;23.30;29.30;;;;;;6169479;28;80513;-62
2021/01/25 00:37:30;;;;;;;12.07;6.78;;;23.30;29.30;;;;;;6155320;28;81975;-63
2021/01/25 00:40:30;;;;;;;13.43;6.65;;;23.30;29.30;;;;;;6153119;28;83353;-62
2021/01/25 00:43:31;;;;;;;13.75;7.05;;;23.20;29.20;;;;;;6155700;28;80464;-62
2021/01/25 00:46:31;;;;;;;11.90;6.53;;;23.20;29.30;;;;;;6178458;28;81495;-62
2021/01/25 00:49:32;;;;;;;13.60;7.07;;;23.20;29.30;;;;;;6175640;28;80401;-62
2021/01/25 00:52:33;;;;;;;12.55;6.63;;;23.20;29.20;;;;;;6179666;27;86962;-63
2021/01/25 00:55:33;;;;;;;12.68;6.43;;;23.20;29.20;;;;;;6178174;28;83479;-62
2021/01/25 00:58:34;;;;;;;14.13;6.20;;;23.20;29.70;;;;;;6152292;28;81905;-62
2021/01/25 01:01:34;;;;;;;14.18;6.90;;;23.20;29.20;;;;;;6156265;28;80809;-63
2021/01/25 01:04:35;;;;;;;11.68;6.00;;;23.20;29.30;;;;;;6174214;27;80482;-62
2021/01/25 01:07:36;;;;;;;15.70;6.72;;;23.20;29.20;;;;;;6178711;28;80629;-62
2021/01/25 01:10:36;;;;;;;11.32;5.85;;;23.20;29.20;;;;;;6177075;27;81224;-62
2021/01/25 01:13:37;;;;;;;13.13;6.80;;;23.20;29.10;;;;;;6179720;27;81544;-62
2021/01/25 01:16:37;;;;;;;11.98;5.97;;;23.20;29.20;;;;;;6177652;28;81522;-62
2021/01/25 01:19:38;;;;;;;13.07;6.10;;;23.10;29.10;;;;;;6170628;27;80588;-63
2021/01/25 01:22:38;;;;;;;14.52;6.40;;;23.10;29.20;;;;;;6158001;28;81318;-62
2021/01/25 01:25:39;;;;;;;11.05;5.80;;;23.10;29.30;;;;;;6176858;27;81172;-62
2021/01/25 01:28:40;;;;;;;11.57;5.35;;;23.10;29.40;;;;;;6169063;27;80562;-63
2021/01/25 01:31:40;;;;;;;13.23;6.20;;;23.10;29.10;;;;;;6146358;28;80823;-62
2021/01/25 01:34:41;;;;;;;11.15;5.90;;;23.00;29.20;;;;;;6178118;27;80648;-62
2021/01/25 01:37:41;;;;;;;10.38;5.38;;;23.00;29.30;;;;;;6177454;28;80621;-63
2021/01/25 01:40:42;;;;;;;13.05;6.05;;;23.00;29.20;;;;;;6177937;28;80859;-62
2021/01/25 01:43:42;;;;;;;10.00;5.18;;;23.00;29.30;;;;;;6171310;28;80539;-62
2021/01/25 01:46:43;;;;;;;13.90;5.90;;;23.00;29.30;;;;;;6177698;27;80326;-61
2021/01/25 01:49:43;;;;;;;11.10;5.28;;;23.00;29.30;;;;;;6178230;27;82496;-62
2021/01/25 01:52:44;;;;;;;11.77;5.72;;;23.00;29.10;;;;;;6174539;27;80776;-62
2021/01/25 01:55:44;;;;;;;11.60;6.03;;;23.00;29.10;;;;;;6154510;28;80706;-62
2021/01/25 01:58:45;;;;;;;10.77;5.32;;;23.00;29.10;;;;;;6150887;28;81021;-62
2021/01/25 02:01:46;;;;;;;11.57;5.88;;;23.00;29.10;;;;;;6153249;28;81030;-63
2021/01/25 02:04:46;;;;;;;10.85;5.53;;;23.00;29.10;;;;;;6177042;28;81904;-62
2021/01/25 02:07:47;;;;;;;11.07;5.88;;;23.00;29.10;;;;;;6172858;28;80778;-62
2021/01/25 02:10:47;;;;;;;13.05;5.88;;;23.00;29.20;;;;;;6177947;28;80494;-62
2021/01/25 02:13:48;;;;;;;11.70;5.85;;;23.00;29.20;;;;;;6158150;27;82051;-62
2021/01/25 02:16:48;;;;;;;11.65;5.45;;;23.00;29.10;;;;;;6166589;28;80761;-62
2021/01/25 02:19:49;;;;;;;13.25;6.32;;;23.00;29.00;;;;;;6160322;27;80605;-62
2021/01/25 02:22:49;;;;;;;13.30;6.07;;;23.00;29.10;;;;;;6154415;28;80467;-61
2021/01/25 02:25:50;;;;;;;11.63;6.30;;;23.00;29.10;;;;;;6150154;28;80404;-62
2021/01/25 02:28:51;;;;;;;11.18;5.90;;;23.00;29.20;;;;;;6154157;28;80993;-62
2021/01/25 02:31:51;;;;;;;11.50;5.75;;;23.00;29.10;;;;;;6172355;28;81497;-62
2021/01/25 02:34:52;;;;;;;11.93;5.55;;;23.00;29.20;;;;;;6172160;27;83457;-62
2021/01/25 02:37:55;;;;;;;13.73;5.40;;;23.00;29.20;;;;;;6174745;28;90085;-62
2021/01/25 02:40:56;;;;;;;13.82;5.90;;;23.00;29.10;;;;;;6170212;27;80578;-62
2021/01/25 02:43:56;;;;;;;12.88;6.60;;;23.00;29.20;;;;;;6175884;28;81359;-62
2021/01/25 02:46:57;;;;;;;14.02;6.57;;;22.90;29.10;;;;;;6170344;27;80720;-62
2021/01/25 02:49:58;;;;;;;12.48;5.93;;;22.90;29.10;;;;;;6172283;27;80704;-62
2021/01/25 02:52:58;;;;;;;14.13;5.85;;;22.90;29.10;;;;;;6155517;28;80652;-62
2021/01/25 02:55:59;;;;;;;13.27;6.03;;;22.90;29.30;;;;;;6173392;27;82109;-62
2021/01/25 02:58:59;;;;;;;11.20;5.75;;;22.90;29.20;;;;;;6153519;28;80841;-62
2021/01/25 03:02:00;;;;;;;11.95;5.60;;;22.90;29.30;;;;;;6129403;28;81997;-62
2021/01/25 03:05:00;;;;;;;11.57;6.30;;;22.90;29.20;;;;;;6153988;27;80605;-62
2021/01/25 03:08:01;;;;;;;12.13;6.03;;;22.90;29.20;;;;;;6157920;28;80955;-62
2021/01/25 03:11:01;;;;;;;16.20;6.20;;;22.90;29.20;;;;;;6175236;28;80860;-62
2021/01/25 03:14:02;;;;;;;13.23;6.22;;;22.90;29.00;;;;;;6176237;28;81889;-62
2021/01/25 03:17:02;;;;;;;12.30;6.10;;;22.90;29.00;;;;;;6171547;28;81889;-62
2021/01/25 03:20:03;;;;;;;11.93;5.50;;;22.90;29.30;;;;;;6137094;28;80565;-62
2021/01/25 03:23:04;;;;;;;13.00;6.22;;;22.90;29.10;;;;;;6152054;28;80969;-62
2021/01/25 03:26:04;;;;;;;12.32;6.03;;;22.90;29.00;;;;;;6176193;28;91166;-62
2021/01/25 03:29:05;;;;;;;12.63;6.50;;;22.80;29.00;;;;;;6157595;28;80962;-62
2021/01/25 03:32:05;;;;;;;13.95;6.32;;;22.90;29.00;;;;;;6156182;28;80437;-62
2021/01/25 03:35:08;;;;;;;13.65;6.28;;;22.90;29.10;;;;;;6170083;28;81653;-62
2021/01/25 03:38:09;;;;;;;11.30;5.90;;;22.90;28.80;;;;;;6149961;28;81419;-63
2021/01/25 03:41:09;;;;;;;12.20;5.60;;;22.90;28.90;;;;;;6158071;27;80588;-63
2021/01/25 03:44:10;;;;;;;12.52;5.82;;;22.90;28.90;;;;;;6176632;28;80685;-63
2021/01/25 03:47:10;;;;;;;12.88;6.18;;;22.90;28.90;;;;;;6176335;28;80421;-62
2021/01/25 03:50:11;;;;;;;11.60;6.00;;;22.80;28.90;;;;;;6172437;28;82252;-62
2021/01/25 03:53:12;;;;;;;13.90;6.00;;;22.80;28.90;;;;;;6186644;27;80401;-62
2021/01/25 03:56:12;;;;;;;9.88;5.28;;;22.80;28.90;;;;;;6176103;28;81219;-62
2021/01/25 03:59:13;;;;;;;13.23;5.80;;;22.90;28.90;;;;;;6167389;27;81599;-62
2021/01/25 04:02:13;;;;;;;12.52;6.13;;;22.80;28.80;;;;;;6167662;28;81344;-63
2021/01/25 04:05:14;;;;;;;11.73;6.10;;;22.90;28.90;;;;;;6154524;28;80552;-62
2021/01/25 04:08:14;;;;;;;12.43;5.95;;;22.80;28.90;;;;;;6169661;28;82950;-62
2021/01/25 04:11:15;;;;;;;14.57;6.63;;;22.80;28.70;;;;;;6152482;28;80709;-62
2021/01/25 04:14:15;;;;;;;11.98;5.75;;;22.80;28.90;;;;;;6152276;28;81148;-63
2021/01/25 04:17:16;;;;;;;12.65;5.85;;;22.80;29.00;;;;;;6151954;28;80734;-63
2021/01/25 04:20:16;;;;;;;12.75;6.50;;;22.80;29.10;;;;;;6159564;28;80553;-61
2021/01/25 04:23:17;;;;;;;10.40;5.80;;;22.80;28.80;;;;;;6175928;27;80378;-61
2021/01/25 04:26:17;;;;;;;12.18;6.10;;;22.80;29.20;;;;;;6176605;27;80624;-62
2021/01/25 04:29:18;;;;;;;11.75;5.72;;;22.80;29.20;;;;;;6166688;27;80950;-62
2021/01/25 04:32:19;;;;;;;9.43;5.30;;;22.80;28.80;;;;;;6168991;27;80571;-61
2021/01/25 04:35:19;;;;;;;12.68;5.68;;;22.80;29.00;;;;;;6166515;28;82903;-61
2021/01/25 04:38:20;;;;;;;15.93;6.18;;;22.90;29.20;;;;;;6156334;27;80405;-62
2021/01/25 04:41:20;;;;;;;13.73;6.13;;;22.90;29.10;;;;;;6175892;27;82207;-61
2021/01/25 04:44:21;;;;;;;15.65;6.18;;;22.80;29.20;;;;;;6163036;27;83195;-62
2021/01/25 04:47:22;;;;;;;12.23;6.00;;;22.80;29.30;;;;;;6158231;27;80624;-62
2021/01/25 04:50:22;;;;;;;19.65;5.13;;;22.80;29.30;;;;;;6166151;28;83749;-63
2021/01/25 04:53:23;;;;;;;12.93;5.47;;;22.80;29.40;;;;;;6140019;28;80863;-61
2021/01/25 04:56:24;;;;;;;16.98;5.95;;;22.80;29.30;;;;;;6153296;28;80675;-61
2021/01/25 04:59:24;;;;;;;12.25;5.60;;;22.70;29.20;;;;;;6161021;28;83340;-63
2021/01/25 05:02:25;;;;;;;13.48;5.40;;;22.80;29.70;;;;;;6168340;28;80762;-61
2021/01/25 05:05:25;;;;;;;14.55;5.88;;;22.80;29.30;;;;;;6150816;28;81567;-61
2021/01/25 05:08:26;;;;;;;13.48;5.65;;;22.80;29.40;;;;;;6151289;28;80834;-61
2021/01/25 05:11:26;;;;;;;10.82;5.10;;;22.80;29.40;;;;;;6153059;28;80809;-62
2021/01/25 05:14:27;;;;;;;13.82;5.85;;;22.80;29.60;;;;;;6162864;28;80882;-61
2021/01/25 05:17:27;;;;;;;11.15;5.60;;;22.80;29.90;;;;;;6177634;27;81254;-62
2021/01/25 05:20:28;;;;;;;15.88;5.22;;;22.90;31.10;;;;;;6170471;28;80315;-63
2021/01/25 05:23:28;;;;;;;10.82;4.78;;;22.90;30.80;;;;;;6153457;28;81028;-66
2021/01/25 05:26:29;;;;;;;15.65;5.32;;;22.90;31.20;;;;;;6162809;28;81439;-61
2021/01/25 05:29:30;;;;;;;15.40;5.28;;;22.90;31.10;;;;;;6171113;27;80340;-62
2021/01/25 05:32:30;;;;;;;15.35;6.93;;;23.00;31.50;;;;;;6137431;28;83025;-61
2021/01/25 05:35:31;;;;;;;11.88;5.88;;;23.00;31.30;;;;;;6179491;28;80327;-60
2021/01/25 05:38:31;;;;;;;14.95;5.60;;;23.00;30.40;;;;;;6178501;27;82242;-61
2021/01/25 05:41:36;;;;;;;12.82;6.28;;;23.00;30.30;;;;;;6169144;28;80739;-60
2021/01/25 05:44:37;;;;;;;14.50;6.20;;;23.10;30.10;;;;;;6163254;28;80510;-60
2021/01/25 05:47:37;;;;;;;12.68;5.63;;;23.10;30.10;;;;;;6162606;28;83163;-60
2021/01/25 05:50:38;;;;;;;12.88;5.80;;;23.10;30.20;;;;;;6178568;27;81397;-61
2021/01/25 05:53:38;;;;;;;14.23;6.25;;;23.20;30.10;;;;;;6165133;27;80903;-61
2021/01/25 05:56:39;;;;;;;12.45;6.72;;;23.20;30.00;;;;;;6132230;28;80805;-60
2021/01/25 05:59:39;;;;;;;18.95;6.70;;;23.20;30.00;;;;;;6151561;28;80413;-61
2021/01/25 06:02:40;;;;;;;14.98;6.18;;;23.20;30.20;;;;;;6149663;28;80722;-61
2021/01/25 06:05:41;;;;;;;12.15;6.00;;;23.30;30.00;;;;;;6161642;28;83126;-60
2021/01/25 06:08:41;;;;;;;14.45;6.40;;;23.30;29.80;;;;;;6169738;28;81357;-60
2021/01/25 06:11:42;;;;;;;14.93;6.03;;;23.40;30.00;;;;;;6154402;28;80464;-61
2021/01/25 06:14:42;;;;;;;14.82;6.47;;;23.40;30.40;;;;;;6125744;28;81091;-61
2021/01/25 06:17:43;;;;;;;11.77;6.45;;;23.40;29.90;;;;;;6147999;28;80515;-61
2021/01/25 06:20:43;;;;;;;13.63;6.07;;;23.40;29.90;;;;;;6153197;28;81416;-63
2021/01/25 06:23:44;;;;;;;15.43;7.47;;;23.40;29.90;;;;;;6151516;28;81106;-65
2021/01/25 06:26:44;;;;;;;17.45;6.78;;;23.40;29.90;;;;;;6163083;28;81626;-61
2021/01/25 06:29:45;;;;;;;15.25;6.90;;;23.50;29.80;;;;;;6172092;27;80600;-63
2021/01/25 06:32:46;;;;;;;20.80;7.35;;;23.50;29.90;;;;;;6176721;27;86520;-67
2021/01/25 06:35:47;;;;;;;14.88;6.22;;;23.50;29.60;;;;;;6149473;27;81109;-61
2021/01/25 06:38:47;;;;;;;15.02;7.22;;;23.40;30.00;;;;;;6170012;28;80370;-63
2021/01/25 06:41:48;;;;;;;16.45;7.28;;;23.40;29.40;;;;;;6172375;28;80878;-62
2021/01/25 06:44:48;;;;;;;18.77;8.18;;;23.50;29.30;;;;;;6172950;28;81796;-61
2021/01/25 06:47:49;;;;;;;15.18;7.15;;;23.50;29.40;;;;;;6168297;28;80365;-63
2021/01/25 06:50:49;;;;;;;14.52;7.07;;;23.50;29.50;;;;;;6150264;28;81009;-63
2021/01/25 06:53:50;;;;;;;15.95;7.50;;;23.50;29.20;;;;;;6157280;27;81948;-63
2021/01/25 06:56:50;;;;;;;15.52;7.88;;;23.50;28.80;;;;;;6176081;28;81441;-63
2021/01/25 06:59:51;;;;;;;21.83;7.40;;;23.50;28.50;;;;;;6175977;28;80719;-63
2021/01/25 07:02:52;;;;;;;16.00;7.70;;;23.50;28.50;;;;;;6177301;28;80287;-63
2021/01/25 07:05:52;;;;;;;14.15;7.38;;;23.50;28.50;;;;;;6176856;27;81494;-62
2021/01/25 07:08:53;;;;;;;13.65;7.35;;;23.50;28.30;;;;;;6160883;28;83373;-63
2021/01/25 07:11:53;;;;;;;17.05;7.28;;;23.50;28.70;;;;;;6153693;28;80938;-62
2021/01/25 07:14:54;;;;;;;13.70;7.13;;;23.50;28.40;;;;;;6163899;28;81247;-61
2021/01/25 07:17:54;;;;;;;13.07;7.18;;;23.60;28.40;;;;;;6177508;28;81656;-62
2021/01/25 07:20:55;;;;;;;14.75;7.22;;;23.50;28.70;;;;;;6175553;28;81596;-62
2021/01/25 07:23:59;;;;;;;19.90;8.60;;;23.50;28.60;;;;;;6177605;27;80154;-62
2021/01/25 07:26:59;;;;;;;15.77;8.02;;;23.50;28.50;;;;;;6178464;28;81316;-63
2021/01/25 07:30:00;;;;;;;19.05;8.68;;;23.50;28.80;;;;;;6176650;28;81167;-63
2021/01/25 07:33:01;;;;;;;17.85;8.30;;;23.50;28.60;;;;;;6175826;27;80400;-63
2021/01/25 07:36:01;;;;;;;20.52;9.40;;;23.50;28.10;;;;;;6169483;27;80663;-63
2021/01/25 07:39:02;;;;;;;19.40;10.18;;;23.40;28.00;;;;;;6168333;27;80714;-63
2021/01/25 07:42:02;;;;;;;15.60;8.85;;;23.40;28.30;;;;;;6172642;27;83274;-63
2021/01/25 07:45:03;;;;;;;16.13;8.38;;;23.40;28.00;;;;;;6175790;28;84453;-64
2021/01/25 07:48:03;;;;;;;16.13;7.93;;;23.40;28.60;;;;;;6175451;28;81855;-63
2021/01/25 07:51:04;;;;;;;19.73;9.02;;;23.40;29.00;;;;;;6176235;27;80827;-65
2021/01/25 07:54:04;;;;;;;19.67;9.40;;;23.40;28.50;;;;;;6174622;27;80902;-64
2021/01/25 07:57:05;;;;;;;18.25;8.85;;;23.40;28.30;;;;;;6175097;28;83418;-65
2021/01/25 08:00:05;;;;;;;17.70;9.02;;;23.40;28.70;;;;;;6165103;28;80869;-65
2021/01/25 08:03:12;;;;;;;18.67;9.32;;;23.40;28.10;;;;;;6159890;28;84175;-62
2021/01/25 08:06:12;;;;;;;20.25;8.93;;;23.40;28.50;;;;;;6155554;28;81737;-62
2021/01/25 08:09:13;;;;;;;16.10;8.27;;;23.40;28.50;;;;;;6166896;28;80615;-62
2021/01/25 08:12:15;;;;;;;23.05;10.80;;;23.40;29.50;;;;;;6170025;27;88079;-61
2021/01/25 08:15:16;;;;;;;18.00;9.00;;;23.40;28.40;;;;;;6173333;28;86074;-62
2021/01/25 08:18:16;;;;;;;19.33;9.60;;;23.30;28.70;;;;;;6148733;28;84573;-61
2021/01/25 08:21:17;;;;;;;20.40;10.05;;;23.30;28.70;;;;;;6169215;28;81029;-61
2021/01/25 08:24:17;;;;;;;19.33;9.25;;;23.30;28.60;;;;;;6157691;28;84741;-62
2021/01/25 08:27:18;;;;;;;21.75;10.15;;;23.30;28.80;;;;;;6161534;28;84243;-62
2021/01/25 08:30:22;;;;;;;21.05;9.57;;;23.30;28.80;;;;;;6163008;27;85336;-62
2021/01/25 08:33:22;;;;;;;19.08;9.10;;;23.30;29.00;;;;;;6180939;28;82779;-62
2021/01/25 08:36:23;;;;;;;20.15;10.05;;;23.30;28.70;;;;;;6158613;27;81418;-62
2021/01/25 08:39:23;;;;;;;18.98;10.00;;;23.20;29.10;;;;;;6175486;28;83418;-61
2021/01/25 08:42:24;;;;;;;21.65;10.85;;;23.20;29.00;;;;;;6167369;28;84247;-61
2021/01/25 08:45:25;;;;;;;16.55;9.55;;;23.30;29.00;;;;;;6173933;27;84755;-62
2021/01/25 08:48:25;;;;;;;23.20;10.50;;;23.20;29.20;;;;;;6175242;28;82877;-61
2021/01/25 08:51:26;;;;;;;20.70;10.60;;;23.20;29.20;;;;;;6178779;28;82859;-62
2021/01/25 08:54:28;;;;;;;24.50;9.93;;;23.20;29.30;;;;;;6177217;28;83633;-61
2021/01/25 08:57:29;;;;;;;19.67;10.65;;;23.20;29.30;;;;;;6180371;27;83484;-62
2021/01/25 09:00:29;;;;;;;18.92;10.05;;;23.20;29.30;;;;;;6161579;28;83439;-61
2021/01/25 09:03:30;;;;;;;22.23;9.98;;;23.20;29.40;;;;;;6167748;28;84057;-62
2021/01/25 09:06:30;;;;;;;24.23;10.95;;;23.20;29.40;;;;;;6169302;28;83106;-62
2021/01/25 09:09:31;;;;;;;26.42;12.35;;;23.20;29.40;;;;;;6170014;28;84375;-62
2021/01/25 09:12:31;;;;;;;31.20;11.60;;;23.20;29.50;;;;;;6155073;27;83583;-61
2021/01/25 09:15:32;;;;;;;22.98;11.00;;;23.20;29.30;;;;;;6153132;28;83226;-64
2021/01/25 09:18:33;;;;;;;22.38;11.52;;;23.20;29.30;;;;;;6149851;28;83803;-61
2021/01/25 09:21:33;;;;;;;24.67;11.55;;;23.10;29.40;;;;;;6175218;28;84165;-62
2021/01/25 09:24:34;;;;;;;26.52;11.95;;;23.10;29.90;;;;;;6159867;27;85952;-61
2021/01/25 09:27:34;;;;;;;19.52;11.10;;;23.20;30.00;;;;;;6176390;28;84288;-61
2021/01/25 09:30:35;;;;;;;21.05;10.75;;;23.20;30.00;;;;;;6171526;28;83079;-65
2021/01/25 09:33:35;;;;;;;22.13;11.63;;;23.20;29.90;;;;;;6176758;27;83555;-61
2021/01/25 09:36:36;;;;;;;28.23;10.05;;;23.20;29.70;;;;;;6168870;28;83178;-60
2021/01/25 09:39:36;;;;;;;20.55;10.80;;;23.10;29.60;;;;;;6176181;28;83591;-60
2021/01/25 09:42:37;;;;;;;25.23;10.82;;;23.20;29.70;;;;;;6164312;28;83170;-61
2021/01/25 09:45:37;;;;;;;22.27;9.95;;;23.20;29.60;;;;;;6168101;27;83287;-61
2021/01/25 09:48:38;;;;;;;20.85;10.10;;;23.20;29.80;;;;;;6173775;27;84137;-62
2021/01/25 09:51:38;;;;;;;17.52;8.85;;;23.30;30.10;;;;;;6167700;28;83902;-62
2021/01/25 09:54:39;;;;;;;20.45;9.98;;;23.40;30.10;;;;;;6161541;27;83122;-60
2021/01/25 09:57:40;;;;;;;21.67;8.73;;;23.50;30.00;;;;;;6168476;28;82804;-61
2021/01/25 10:00:40;;;;;;;18.25;8.65;;;23.40;29.90;;;;;;6175512;28;84236;-61
2021/01/25 10:03:41;;;;;;;19.83;9.60;;;23.40;29.50;;;;;;6167738;28;80921;-62
2021/01/25 10:06:41;;;;;;;24.48;8.98;;;23.30;29.60;;;;;;6170253;28;83062;-61
2021/01/25 10:09:42;;;;;;;31.23;10.93;;;23.30;29.70;;;;;;6178192;28;80945;-62
2021/01/25 10:12:42;;;;;;;20.13;9.50;;;23.30;30.00;;;;;;6174177;27;83518;-61
2021/01/25 10:15:43;;;;;;;19.02;9.68;;;23.30;30.30;;;;;;6155870;28;84384;-61
2021/01/25 10:18:43;;;;;;;22.55;10.68;;;23.20;30.20;;;;;;6169965;27;81717;-61
2021/01/25 10:21:44;;;;;;;19.60;8.90;;;23.20;30.30;;;;;;6172851;28;83334;-62
2021/01/25 10:24:44;;;;;;;22.83;10.77;;;23.20;30.10;;;;;;6149345;27;82870;-61
2021/01/25 10:27:45;;;;;;;20.52;10.13;;;23.20;30.10;;;;;;6168831;28;83116;-62
2021/01/25 10:30:45;;;;;;;21.25;10.27;;;23.20;30.00;;;;;;6179138;28;85707;-61
2021/01/25 10:33:46;;;;;;;24.15;9.27;;;23.20;30.00;;;;;;6169433;28;83302;-61
2021/01/25 10:36:46;;;;;;;21.33;9.63;;;23.20;30.00;;;;;;6176685;28;82806;-61
2021/01/25 10:39:47;;;;;;;22.63;10.90;;;23.20;30.10;;;;;;6157767;28;81903;-64
2021/01/25 10:42:48;;;;;;;22.92;10.25;;;23.20;30.10;;;;;;6161753;28;82890;-61
2021/01/25 10:45:48;;;;;;;20.48;9.18;;;23.20;30.30;;;;;;6151208;28;84919;-61
2021/01/25 10:48:49;;;;;;;18.40;9.50;;;23.10;30.10;;;;;;6171288;28;82974;-61
2021/01/25 10:51:49;;;;;;;20.33;10.13;;;23.20;30.00;;;;;;6174329;28;81501;-62
2021/01/25 10:54:50;;;;;;;17.65;9.00;;;23.20;30.10;;;;;;6131921;27;83408;-62
2021/01/25 10:57:50;;;;;;;19.73;8.75;;;23.20;30.00;;;;;;6172733;28;82713;-61
2021/01/25 11:00:52;;;;;;;19.52;9.02;;;23.30;30.10;;;;;;6168810;28;81022;-61
2021/01/25 11:03:53;;;;;;;18.88;9.20;;;23.40;30.40;;;;;;6151241;28;80880;-61
2021/01/25 11:06:53;;;;;;;21.00;8.80;;;23.40;30.30;;;;;;6171605;28;81254;-62
2021/01/25 11:09:54;;;;;;;20.58;9.18;;;23.40;30.20;;;;;;6171643;28;81669;-62
2021/01/25 11:12:54;;;;;;;16.92;9.00;;;23.40;30.40;;;;;;6178244;28;81157;-61
2021/01/25 11:15:55;;;;;;;17.05;8.80;;;23.50;30.00;;;;;;6165947;28;80582;-61
2021/01/25 11:18:55;;;;;;;14.77;7.68;;;23.50;29.90;;;;;;6159028;27;81070;-61
2021/01/25 11:21:56;;;;;;;16.80;8.98;;;23.50;29.80;;;;;;6150114;28;81707;-63
2021/01/25 11:24:56;;;;;;;16.15;8.77;;;23.50;29.50;;;;;;6153570;27;81074;-63
2021/01/25 11:27:57;;;;;;;15.70;8.55;;;23.60;29.60;;;;;;6172800;28;80452;-62
2021/01/25 11:30:58;;;;;;;15.30;9.00;;;23.70;29.90;;;;;;6169031;28;80477;-62
2021/01/25 11:33:58;;;;;;;17.25;9.65;;;23.70;29.60;;;;;;6156207;28;81611;-62
2021/01/25 11:36:59;;;;;;;19.83;9.65;;;23.70;29.50;;;;;;6150265;28;81719;-62
2021/01/25 11:39:59;;;;;;;17.90;9.68;;;23.70;29.50;;;;;;6169236;28;87125;-62
2021/01/25 11:43:00;;;;;;;17.45;9.63;;;23.80;29.50;;;;;;6166950;28;80134;-61
2021/01/25 11:46:01;;;;;;;16.65;9.30;;;23.80;29.70;;;;;;6146609;28;80834;-62
2021/01/25 11:49:02;;;;;;;19.15;9.85;;;23.80;29.50;;;;;;6169966;28;80893;-65
2021/01/25 11:52:03;;;;;;;17.60;9.40;;;23.80;29.40;;;;;;6169395;28;81028;-62
2021/01/25 11:55:03;;;;;;;18.23;9.32;;;23.80;29.40;;;;;;6161061;27;80937;-62
2021/01/25 11:58:04;;;;;;;24.98;11.13;;;23.70;29.10;;;;;;6175651;28;81744;-62
2021/01/25 12:01:04;;;;;;;24.25;10.77;;;23.70;29.00;;;;;;6173348;27;83307;-62
2021/01/25 12:04:05;;;;;;;18.05;9.90;;;23.70;29.10;;;;;;6172690;27;83396;-61
2021/01/25 12:07:05;;;;;;;16.90;9.40;;;23.70;29.60;;;;;;6178146;27;84126;-62
2021/01/25 12:10:06;;;;;;;22.85;10.02;;;23.70;29.30;;;;;;6182560;28;80403;-64
2021/01/25 12:13:06;;;;;;;20.75;10.60;;;23.70;29.10;;;;;;6157178;28;83325;-62
2021/01/25 12:16:10;;;;;;;25.88;10.75;;;23.70;29.00;;;;;;6154199;28;83548;-62
2021/01/25 12:19:10;;;;;;;19.83;10.40;;;23.70;28.80;;;;;;6167939;28;83109;-61
2021/01/25 12:22:11;;;;;;;21.58;10.75;;;23.60;28.80;;;;;;6156292;28;83026;-62
2021/01/25 12:25:12;;;;;;;19.33;9.95;;;23.70;28.70;;;;;;6147453;28;83939;-64
2021/01/25 12:28:12;;;;;;;22.27;10.50;;;23.70;28.90;;;;;;6174130;28;82933;-65
2021/01/25 12:31:13;;;;;;;21.27;11.85;;;23.60;28.90;;;;;;6178750;28;82888;-64
2021/01/25 12:34:13;;;;;;;27.70;10.98;;;23.70;29.10;;;;;;6176382;28;83248;-65
2021/01/25 12:37:14;;;;;;;20.17;10.20;;;23.60;28.70;;;;;;6177972;28;83433;-64
2021/01/25 12:40:15;;;;;;;18.58;9.23;;;23.70;28.70;;;;;;6177246;28;84700;-65
2021/01/25 12:43:15;;;;;;;20.10;10.75;;;23.70;28.70;;;;;;6179660;27;81730;-65
2021/01/25 12:46:16;;;;;;;22.45;10.90;;;23.70;28.70;;;;;;6150914;28;83462;-66
2021/01/25 12:49:16;;;;;;;19.20;10.02;;;23.60;28.40;;;;;;6170536;28;83535;-64
2021/01/25 12:52:17;;;;;;;20.08;11.15;;;23.60;28.30;;;;;;6176096;28;83629;-65
2021/01/25 12:55:17;;;;;;;21.05;9.88;;;23.70;28.30;;;;;;6182492;27;83552;-63
2021/01/25 12:58:18;;;;;;;18.00;9.85;;;23.60;28.30;;;;;;6182636;28;83218;-66
2021/01/25 13:01:18;;;;;;;20.55;10.13;;;23.60;28.30;;;;;;6152382;28;80609;-64
2021/01/25 13:04:19;;;;;;;16.88;9.20;;;23.60;28.30;;;;;;6172725;28;83575;-64
2021/01/25 13:07:19;;;;;;;17.95;9.32;;;23.60;28.20;;;;;;6178013;28;84013;-63
2021/01/25 13:10:20;;;;;;;16.00;9.55;;;23.60;28.30;;;;;;6178682;27;81601;-64
2021/01/25 13:13:20;;;;;;;16.10;8.73;;;23.60;28.40;;;;;;6175252;27;81483;-64
2021/01/25 13:16:21;;;;;;;16.23;8.85;;;23.60;28.40;;;;;;6179217;27;81336;-64
2021/01/25 13:19:21;;;;;;;21.67;9.60;;;23.60;28.50;;;;;;6183939;28;80760;-64
2021/01/25 13:22:22;;;;;;;16.98;9.27;;;23.60;28.40;;;;;;6155737;28;80417;-64
2021/01/25 13:25:23;;;;;;;17.88;8.43;;;23.60;28.40;;;;;;6175619;28;81691;-64
2021/01/25 13:28:23;;;;;;;15.50;8.85;;;23.50;28.40;;;;;;6178679;27;81291;-64
2021/01/25 13:31:24;;;;;;;17.15;8.65;;;23.50;28.40;;;;;;6155868;27;82045;-64
2021/01/25 13:34:24;;;;;;;18.23;8.43;;;23.50;28.40;;;;;;6177605;28;81648;-64
2021/01/25 13:37:25;;;;;;;15.95;9.02;;;23.40;28.50;;;;;;6178268;27;81489;-65
2021/01/25 13:40:25;;;;;;;18.20;9.35;;;23.40;28.60;;;;;;6178111;28;80391;-65
2021/01/25 13:43:26;;;;;;;12.05;7.72;;;23.40;28.60;;;;;;6176579;27;81143;-65
2021/01/25 13:46:26;;;;;;;15.38;8.23;;;23.40;28.50;;;;;;6152305;28;81603;-62
2021/01/25 13:49:27;;;;;;;13.65;7.85;;;23.40;28.70;;;;;;6148536;28;80637;-62
2021/01/25 13:52:27;;;;;;;14.15;7.28;;;23.40;28.60;;;;;;6176807;28;80223;-63
2021/01/25 13:55:28;;;;;;;16.75;8.20;;;23.30;28.60;;;;;;6155757;27;80672;-63
2021/01/25 13:58:28;;;;;;;17.10;7.50;;;23.40;28.70;;;;;;6154758;28;80779;-63
2021/01/25 14:01:29;;;;;;;14.15;7.47;;;23.40;29.00;;;;;;6173362;28;80817;-61
2021/01/25 14:04:29;;;;;;;13.20;7.50;;;23.30;29.00;;;;;;6148612;28;80523;-63
2021/01/25 14:07:30;;;;;;;14.18;7.15;;;23.30;29.20;;;;;;6174541;28;88141;-62
2021/01/25 14:10:30;;;;;;;14.32;7.13;;;23.30;29.00;;;;;;6178677;28;80655;-62
2021/01/25 14:13:31;;;;;;;11.65;6.43;;;23.30;29.20;;;;;;6154197;28;80749;-62
2021/01/25 14:16:31;;;;;;;11.70;6.53;;;23.30;29.30;;;;;;6149121;28;80592;-62
2021/01/25 14:19:33;;;;;;;12.23;6.00;;;23.30;29.30;;;;;;6173668;28;80392;-62
2021/01/25 14:22:33;;;;;;;11.05;6.88;;;23.20;29.10;;;;;;6177125;28;80987;-62
2021/01/25 14:25:34;;;;;;;13.32;7.38;;;23.20;29.10;;;;;;6153238;27;80732;-62
2021/01/25 14:28:34;;;;;;;13.55;7.13;;;23.20;29.10;;;;;;6177959;28;80695;-63
2021/01/25 14:31:35;;;;;;;15.07;6.78;;;23.20;29.10;;;;;;6186243;28;81841;-63
2021/01/25 14:34:35;;;;;;;13.40;7.68;;;23.20;29.10;;;;;;6173645;28;80635;-63
2021/01/25 14:37:36;;;;;;;13.80;7.60;;;23.10;29.10;;;;;;6172397;27;86281;-65
2021/01/25 14:40:36;;;;;;;14.52;7.22;;;23.20;29.10;;;;;;6171225;28;84673;-63
2021/01/25 14:43:37;;;;;;;13.70;6.65;;;23.10;29.00;;;;;;6173879;27;80500;-67
2021/01/25 14:46:38;;;;;;;13.10;6.90;;;23.10;29.00;;;;;;6169798;28;80677;-63
2021/01/25 14:49:38;;;;;;;12.93;7.05;;;23.10;29.50;;;;;;6153217;28;81228;-62
2021/01/25 14:52:39;;;;;;;14.63;7.00;;;23.10;29.60;;;;;;6149145;28;81701;-65
2021/01/25 14:55:39;;;;;;;11.60;7.00;;;23.10;29.70;;;;;;6172462;28;81671;-64
2021/01/25 14:58:40;;;;;;;12.82;6.97;;;23.10;29.70;;;;;;6175119;28;80292;-64
2021/01/25 15:01:40;;;;;;;14.13;6.57;;;23.10;29.80;;;;;;6175622;28;80925;-64
2021/01/25 15:04:41;;;;;;;13.93;6.90;;;23.10;29.80;;;;;;6177744;28;89973;-64
2021/01/25 15:07:41;;;;;;;13.30;7.30;;;23.10;29.70;;;;;;6177665;27;80541;-64
2021/01/25 15:10:42;;;;;;;12.23;7.43;;;23.10;29.80;;;;;;6175875;28;80656;-65
2021/01/25 15:13:42;;;;;;;10.88;6.55;;;23.10;30.30;;;;;;6174892;27;81070;-63
2021/01/25 15:16:43;;;;;;;13.95;7.35;;;23.10;29.80;;;;;;6163901;27;80677;-64
2021/01/25 15:19:44;;;;;;;15.52;7.68;;;23.10;29.90;;;;;;6151200;28;81136;-64
2021/01/25 15:22:44;;;;;;;11.85;6.82;;;23.10;29.80;;;;;;6155567;28;81000;-63
2021/01/25 15:25:45;;;;;;;12.10;7.43;;;23.10;30.00;;;;;;6153385;28;81567;-64